This is the latest recevied weather packets stored in our database for station/object N5GMJ. If no packets are shown the sender has not sent any weather packets the latest 10 day(s).
| Time | Temp. | Humidity | Pressure | Rain* | Wind** | Luminosity | Snow |
|---|---|---|---|---|---|---|---|
| 1777143637 | 30° C | 67% | 1006.6 hPa | 0 mm | - | - | - |
| 1777143332 | 30° C | 65% | 1006.8 hPa | 0 mm | - | - | - |
| 1777143028 | 29.44° C | 66% | 1006.8 hPa | 0 mm | - | - | - |
| 1777142724 | 29.44° C | 67% | 1006.8 hPa | 0 mm | - | - | - |
| 1777142422 | 28.89° C | 69% | 1007 hPa | 0 mm | - | - | - |
| 1777142121 | 29.44° C | 69% | 1007.2 hPa | 0 mm | - | - | - |
| 1777141818 | 28.89° C | 67% | 1007 hPa | 0 mm | - | - | - |
| 1777141515 | 29.44° C | 70% | 1007.1 hPa | 0 mm | - | - | - |
| 1777141214 | 30° C | 68% | 1007.2 hPa | 0 mm | - | - | - |
| 1777140910 | 28.89° C | 71% | 1007.5 hPa | 0 mm | - | - | - |
| 1777140607 | 28.89° C | 70% | 1007.4 hPa | 0 mm | - | - | - |
| 1777140304 | 28.33° C | 70% | 1007.6 hPa | 0 mm | - | - | - |
| 1777140001 | 28.33° C | 69% | 1007.7 hPa | 0 mm | - | - | - |
| 1777139699 | 28.33° C | 71% | 1007.8 hPa | 0 mm | - | - | - |
| 1777139398 | 28.33° C | 72% | 1007.8 hPa | 0 mm | - | - | - |
| 1777139095 | 27.78° C | 71% | 1007.8 hPa | 0 mm | - | - | - |
| 1777138791 | 27.78° C | 72% | 1007.9 hPa | 0 mm | - | - | - |
| 1777138487 | 27.78° C | 74% | 1008.2 hPa | 0 mm | - | - | - |
| 1777138184 | 27.78° C | 71% | 1008 hPa | 0 mm | - | - | - |
| 1777137880 | 27.78° C | 75% | 1008.2 hPa | 0 mm | - | - | - |
| 1777137575 | 27.22° C | 73% | 1008.2 hPa | 0 mm | - | - | - |
| 1777137273 | 27.78° C | 74% | 1008.3 hPa | 0 mm | - | - | - |
| 1777136971 | 27.78° C | 71% | 1008.3 hPa | 0 mm | - | - | - |
| 1777136666 | 28.33° C | 70% | 1008.4 hPa | 0 mm | - | - | - |
| 1777136364 | 28.89° C | 69% | 1008.2 hPa | 0 mm | - | - | - |
* Rain latest hour (hover to see other rain measurements)
** Current wind speed in m/s (hover to see current wind gust speed)